sensor_id;sensor_type;location;lat;lon;timestamp;P1;durP1;ratioP1;P2;durP2;ratioP2
20844;SDS011;10583;49.084;8.646;2023-09-19T00:00:19;0.90;;;0.90;;
20844;SDS011;10583;49.084;8.646;2023-09-19T00:02:46;1.33;;;1.33;;
20844;SDS011;10583;49.084;8.646;2023-09-19T00:05:25;1.23;;;1.23;;
20844;SDS011;10583;49.084;8.646;2023-09-19T00:07:53;0.70;;;0.70;;
20844;SDS011;10583;49.084;8.646;2023-09-19T00:10:21;1.13;;;1.13;;
20844;SDS011;10583;49.084;8.646;2023-09-19T00:12:49;0.80;;;0.80;;
20844;SDS011;10583;49.084;8.646;2023-09-19T00:15:18;1.10;;;1.10;;
20844;SDS011;10583;49.084;8.646;2023-09-19T00:17:45;0.80;;;0.80;;
20844;SDS011;10583;49.084;8.646;2023-09-19T00:20:14;1.03;;;1.03;;
20844;SDS011;10583;49.084;8.646;2023-09-19T00:22:42;0.80;;;0.80;;
20844;SDS011;10583;49.084;8.646;2023-09-19T00:25:10;1.03;;;1.03;;
20844;SDS011;10583;49.084;8.646;2023-09-19T00:27:37;0.80;;;0.80;;
20844;SDS011;10583;49.084;8.646;2023-09-19T00:30:07;0.90;;;0.90;;
20844;SDS011;10583;49.084;8.646;2023-09-19T00:32:39;0.97;;;0.97;;
20844;SDS011;10583;49.084;8.646;2023-09-19T00:35:06;0.87;;;0.87;;
20844;SDS011;10583;49.084;8.646;2023-09-19T00:37:37;1.00;;;1.00;;
20844;SDS011;10583;49.084;8.646;2023-09-19T00:40:05;0.80;;;0.80;;
20844;SDS011;10583;49.084;8.646;2023-09-19T00:42:35;0.80;;;0.80;;
20844;SDS011;10583;49.084;8.646;2023-09-19T00:45:03;1.00;;;1.00;;
20844;SDS011;10583;49.084;8.646;2023-09-19T00:47:31;0.87;;;0.87;;
20844;SDS011;10583;49.084;8.646;2023-09-19T00:49:58;0.83;;;0.83;;
20844;SDS011;10583;49.084;8.646;2023-09-19T00:52:25;0.87;;;0.87;;
20844;SDS011;10583;49.084;8.646;2023-09-19T00:54:55;0.80;;;0.80;;
20844;SDS011;10583;49.084;8.646;2023-09-19T00:57:22;0.80;;;0.80;;
20844;SDS011;10583;49.084;8.646;2023-09-19T00:59:50;0.70;;;0.70;;
20844;SDS011;10583;49.084;8.646;2023-09-19T01:02:20;0.90;;;0.90;;
20844;SDS011;10583;49.084;8.646;2023-09-19T01:04:47;0.87;;;0.87;;
20844;SDS011;10583;49.084;8.646;2023-09-19T01:07:15;0.90;;;0.90;;
20844;SDS011;10583;49.084;8.646;2023-09-19T01:09:43;0.60;;;0.60;;
20844;SDS011;10583;49.084;8.646;2023-09-19T01:12:11;0.93;;;0.93;;
20844;SDS011;10583;49.084;8.646;2023-09-19T01:14:45;0.80;;;0.80;;
20844;SDS011;10583;49.084;8.646;2023-09-19T01:17:24;0.80;;;0.80;;
20844;SDS011;10583;49.084;8.646;2023-09-19T01:20:03;1.03;;;1.03;;
20844;SDS011;10583;49.084;8.646;2023-09-19T01:22:42;1.17;;;1.17;;
20844;SDS011;10583;49.084;8.646;2023-09-19T01:28:37;0.90;;;0.90;;
20844;SDS011;10583;49.084;8.646;2023-09-19T01:31:13;1.00;;;1.00;;
20844;SDS011;10583;49.084;8.646;2023-09-19T01:33:53;0.97;;;0.97;;
20844;SDS011;10583;49.084;8.646;2023-09-19T01:36:25;1.10;;;1.10;;
20844;SDS011;10583;49.084;8.646;2023-09-19T01:38:55;0.70;;;0.70;;
20844;SDS011;10583;49.084;8.646;2023-09-19T01:41:37;0.50;;;0.50;;
20844;SDS011;10583;49.084;8.646;2023-09-19T01:44:12;0.80;;;0.80;;
20844;SDS011;10583;49.084;8.646;2023-09-19T01:46:47;0.70;;;0.70;;
20844;SDS011;10583;49.084;8.646;2023-09-19T01:49:17;0.60;;;0.60;;
20844;SDS011;10583;49.084;8.646;2023-09-19T01:51:53;0.90;;;0.90;;
20844;SDS011;10583;49.084;8.646;2023-09-19T01:54:30;0.90;;;0.90;;
20844;SDS011;10583;49.084;8.646;2023-09-19T01:56:59;1.20;;;1.20;;
20844;SDS011;10583;49.084;8.646;2023-09-19T01:59:32;1.00;;;1.00;;
20844;SDS011;10583;49.084;8.646;2023-09-19T02:02:06;0.97;;;0.97;;
20844;SDS011;10583;49.084;8.646;2023-09-19T02:04:35;0.70;;;0.70;;
20844;SDS011;10583;49.084;8.646;2023-09-19T02:07:02;0.90;;;0.90;;
20844;SDS011;10583;49.084;8.646;2023-09-19T02:09:33;1.03;;;1.03;;
20844;SDS011;10583;49.084;8.646;2023-09-19T02:12:03;0.70;;;0.70;;
20844;SDS011;10583;49.084;8.646;2023-09-19T02:14:31;1.10;;;1.10;;
20844;SDS011;10583;49.084;8.646;2023-09-19T02:16:59;0.87;;;0.87;;
20844;SDS011;10583;49.084;8.646;2023-09-19T02:19:27;0.80;;;0.80;;
20844;SDS011;10583;49.084;8.646;2023-09-19T02:21:55;0.70;;;0.70;;
20844;SDS011;10583;49.084;8.646;2023-09-19T02:24:21;0.90;;;0.90;;
20844;SDS011;10583;49.084;8.646;2023-09-19T02:26:49;1.00;;;1.00;;
20844;SDS011;10583;49.084;8.646;2023-09-19T02:29:17;1.10;;;1.10;;
20844;SDS011;10583;49.084;8.646;2023-09-19T02:31:44;1.00;;;1.00;;
20844;SDS011;10583;49.084;8.646;2023-09-19T02:34:11;1.00;;;1.00;;
20844;SDS011;10583;49.084;8.646;2023-09-19T02:36:40;1.00;;;1.00;;
20844;SDS011;10583;49.084;8.646;2023-09-19T02:39:09;1.00;;;1.00;;
20844;SDS011;10583;49.084;8.646;2023-09-19T02:41:36;1.00;;;1.00;;
20844;SDS011;10583;49.084;8.646;2023-09-19T02:44:03;1.00;;;1.00;;
20844;SDS011;10583;49.084;8.646;2023-09-19T02:46:32;1.07;;;1.07;;
20844;SDS011;10583;49.084;8.646;2023-09-19T02:49:01;1.50;;;1.50;;
20844;SDS011;10583;49.084;8.646;2023-09-19T02:51:30;0.97;;;0.97;;
20844;SDS011;10583;49.084;8.646;2023-09-19T02:53:58;1.00;;;1.00;;
20844;SDS011;10583;49.084;8.646;2023-09-19T02:56:25;0.97;;;0.97;;
20844;SDS011;10583;49.084;8.646;2023-09-19T02:58:52;1.10;;;1.10;;
20844;SDS011;10583;49.084;8.646;2023-09-19T03:01:20;0.90;;;0.90;;
20844;SDS011;10583;49.084;8.646;2023-09-19T03:03:47;1.20;;;1.20;;
20844;SDS011;10583;49.084;8.646;2023-09-19T03:06:14;1.10;;;1.10;;
20844;SDS011;10583;49.084;8.646;2023-09-19T03:08:45;1.00;;;1.00;;
20844;SDS011;10583;49.084;8.646;2023-09-19T03:11:15;1.00;;;1.00;;
20844;SDS011;10583;49.084;8.646;2023-09-19T03:13:46;1.00;;;1.00;;
20844;SDS011;10583;49.084;8.646;2023-09-19T03:16:16;0.90;;;0.90;;
20844;SDS011;10583;49.084;8.646;2023-09-19T03:18:44;0.70;;;0.70;;
20844;SDS011;10583;49.084;8.646;2023-09-19T03:21:12;0.80;;;0.80;;
20844;SDS011;10583;49.084;8.646;2023-09-19T03:23:39;0.90;;;0.90;;
20844;SDS011;10583;49.084;8.646;2023-09-19T03:26:08;0.83;;;0.83;;
20844;SDS011;10583;49.084;8.646;2023-09-19T03:28:36;0.93;;;0.93;;
20844;SDS011;10583;49.084;8.646;2023-09-19T03:31:04;1.07;;;1.07;;
20844;SDS011;10583;49.084;8.646;2023-09-19T03:33:32;0.80;;;0.80;;
20844;SDS011;10583;49.084;8.646;2023-09-19T03:35:59;0.90;;;0.90;;
20844;SDS011;10583;49.084;8.646;2023-09-19T03:38:30;1.10;;;1.10;;
20844;SDS011;10583;49.084;8.646;2023-09-19T03:40:57;1.00;;;1.00;;
20844;SDS011;10583;49.084;8.646;2023-09-19T03:43:24;1.00;;;1.00;;
20844;SDS011;10583;49.084;8.646;2023-09-19T03:45:53;0.80;;;0.80;;
20844;SDS011;10583;49.084;8.646;2023-09-19T03:48:20;1.17;;;1.17;;
20844;SDS011;10583;49.084;8.646;2023-09-19T03:50:48;1.23;;;1.23;;
20844;SDS011;10583;49.084;8.646;2023-09-19T03:53:15;1.20;;;1.20;;
20844;SDS011;10583;49.084;8.646;2023-09-19T03:55:44;0.93;;;0.93;;
20844;SDS011;10583;49.084;8.646;2023-09-19T03:58:11;1.20;;;1.20;;
20844;SDS011;10583;49.084;8.646;2023-09-19T04:00:38;0.83;;;0.83;;
20844;SDS011;10583;49.084;8.646;2023-09-19T04:03:06;1.17;;;1.17;;
20844;SDS011;10583;49.084;8.646;2023-09-19T04:05:34;1.00;;;1.00;;
20844;SDS011;10583;49.084;8.646;2023-09-19T04:08:00;1.10;;;1.10;;
20844;SDS011;10583;49.084;8.646;2023-09-19T04:10:27;1.13;;;1.13;;
20844;SDS011;10583;49.084;8.646;2023-09-19T04:12:55;0.87;;;0.87;;
20844;SDS011;10583;49.084;8.646;2023-09-19T04:15:22;1.20;;;1.20;;
20844;SDS011;10583;49.084;8.646;2023-09-19T04:17:49;1.30;;;1.30;;
20844;SDS011;10583;49.084;8.646;2023-09-19T04:20:18;1.20;;;1.20;;
20844;SDS011;10583;49.084;8.646;2023-09-19T04:22:48;1.10;;;1.10;;
20844;SDS011;10583;49.084;8.646;2023-09-19T04:25:14;1.10;;;1.10;;
20844;SDS011;10583;49.084;8.646;2023-09-19T04:27:41;1.00;;;1.00;;
20844;SDS011;10583;49.084;8.646;2023-09-19T04:30:10;1.67;;;1.67;;
20844;SDS011;10583;49.084;8.646;2023-09-19T04:32:37;1.37;;;1.37;;
20844;SDS011;10583;49.084;8.646;2023-09-19T04:35:06;1.20;;;1.20;;
20844;SDS011;10583;49.084;8.646;2023-09-19T04:37:36;1.00;;;1.00;;
20844;SDS011;10583;49.084;8.646;2023-09-19T04:40:05;1.10;;;1.10;;
20844;SDS011;10583;49.084;8.646;2023-09-19T04:42:37;0.87;;;0.87;;
20844;SDS011;10583;49.084;8.646;2023-09-19T04:45:05;1.20;;;1.20;;
20844;SDS011;10583;49.084;8.646;2023-09-19T04:47:34;1.10;;;1.10;;
20844;SDS011;10583;49.084;8.646;2023-09-19T04:50:03;1.30;;;1.30;;
20844;SDS011;10583;49.084;8.646;2023-09-19T04:52:39;1.00;;;1.00;;
20844;SDS011;10583;49.084;8.646;2023-09-19T04:55:09;1.20;;;1.20;;
20844;SDS011;10583;49.084;8.646;2023-09-19T04:57:42;1.10;;;1.10;;
20844;SDS011;10583;49.084;8.646;2023-09-19T05:00:11;1.20;;;1.20;;
20844;SDS011;10583;49.084;8.646;2023-09-19T05:02:40;1.40;;;1.40;;
20844;SDS011;10583;49.084;8.646;2023-09-19T05:05:08;1.20;;;1.20;;
20844;SDS011;10583;49.084;8.646;2023-09-19T05:07:36;1.30;;;1.30;;
20844;SDS011;10583;49.084;8.646;2023-09-19T05:10:05;1.30;;;1.30;;
20844;SDS011;10583;49.084;8.646;2023-09-19T05:12:33;1.50;;;1.50;;
20844;SDS011;10583;49.084;8.646;2023-09-19T05:15:00;1.47;;;1.47;;
20844;SDS011;10583;49.084;8.646;2023-09-19T05:17:28;1.60;;;1.60;;
20844;SDS011;10583;49.084;8.646;2023-09-19T05:19:56;1.27;;;1.27;;
20844;SDS011;10583;49.084;8.646;2023-09-19T05:22:26;1.30;;;1.30;;
20844;SDS011;10583;49.084;8.646;2023-09-19T05:24:54;1.80;;;1.80;;
20844;SDS011;10583;49.084;8.646;2023-09-19T05:27:22;1.70;;;1.70;;
20844;SDS011;10583;49.084;8.646;2023-09-19T05:29:49;1.60;;;1.60;;
20844;SDS011;10583;49.084;8.646;2023-09-19T05:32:18;1.80;;;1.80;;
20844;SDS011;10583;49.084;8.646;2023-09-19T05:34:45;1.80;;;1.80;;
20844;SDS011;10583;49.084;8.646;2023-09-19T05:37:13;1.77;;;1.77;;
20844;SDS011;10583;49.084;8.646;2023-09-19T05:39:41;1.93;;;1.93;;
20844;SDS011;10583;49.084;8.646;2023-09-19T05:42:08;2.03;;;2.03;;
20844;SDS011;10583;49.084;8.646;2023-09-19T05:44:37;1.70;;;1.70;;
20844;SDS011;10583;49.084;8.646;2023-09-19T05:47:04;1.93;;;1.93;;
20844;SDS011;10583;49.084;8.646;2023-09-19T05:49:34;1.37;;;1.37;;
20844;SDS011;10583;49.084;8.646;2023-09-19T05:52:02;1.50;;;1.50;;
20844;SDS011;10583;49.084;8.646;2023-09-19T05:54:30;1.50;;;1.50;;
20844;SDS011;10583;49.084;8.646;2023-09-19T05:56:58;1.63;;;1.63;;
20844;SDS011;10583;49.084;8.646;2023-09-19T05:59:25;1.70;;;1.70;;
20844;SDS011;10583;49.084;8.646;2023-09-19T06:01:53;1.30;;;1.30;;
20844;SDS011;10583;49.084;8.646;2023-09-19T06:04:20;1.73;;;1.73;;
20844;SDS011;10583;49.084;8.646;2023-09-19T06:06:47;1.63;;;1.63;;
20844;SDS011;10583;49.084;8.646;2023-09-19T06:09:14;1.73;;;1.73;;
20844;SDS011;10583;49.084;8.646;2023-09-19T06:11:42;1.70;;;1.70;;
20844;SDS011;10583;49.084;8.646;2023-09-19T06:14:09;2.03;;;2.03;;
20844;SDS011;10583;49.084;8.646;2023-09-19T06:16:36;2.13;;;2.13;;
20844;SDS011;10583;49.084;8.646;2023-09-19T06:19:05;1.43;;;1.43;;
20844;SDS011;10583;49.084;8.646;2023-09-19T06:21:34;1.80;;;1.80;;
20844;SDS011;10583;49.084;8.646;2023-09-19T06:24:01;1.40;;;1.40;;
20844;SDS011;10583;49.084;8.646;2023-09-19T06:26:28;1.37;;;1.37;;
20844;SDS011;10583;49.084;8.646;2023-09-19T06:28:56;1.40;;;1.40;;
20844;SDS011;10583;49.084;8.646;2023-09-19T06:31:22;2.00;;;2.00;;
20844;SDS011;10583;49.084;8.646;2023-09-19T06:33:51;1.70;;;1.70;;
20844;SDS011;10583;49.084;8.646;2023-09-19T06:36:19;2.10;;;2.10;;
20844;SDS011;10583;49.084;8.646;2023-09-19T06:38:47;1.90;;;1.90;;
20844;SDS011;10583;49.084;8.646;2023-09-19T06:41:16;1.70;;;1.70;;
20844;SDS011;10583;49.084;8.646;2023-09-19T06:43:43;1.63;;;1.63;;
20844;SDS011;10583;49.084;8.646;2023-09-19T06:46:10;1.87;;;1.87;;
20844;SDS011;10583;49.084;8.646;2023-09-19T06:48:37;1.20;;;1.20;;
20844;SDS011;10583;49.084;8.646;2023-09-19T06:51:04;1.27;;;1.27;;
20844;SDS011;10583;49.084;8.646;2023-09-19T06:53:33;1.43;;;1.43;;
20844;SDS011;10583;49.084;8.646;2023-09-19T06:56:00;1.47;;;1.47;;
20844;SDS011;10583;49.084;8.646;2023-09-19T06:58:27;1.40;;;1.40;;
20844;SDS011;10583;49.084;8.646;2023-09-19T07:00:54;1.97;;;1.97;;
20844;SDS011;10583;49.084;8.646;2023-09-19T07:03:22;1.50;;;1.50;;
20844;SDS011;10583;49.084;8.646;2023-09-19T07:05:51;2.07;;;2.07;;
20844;SDS011;10583;49.084;8.646;2023-09-19T07:08:21;1.80;;;1.80;;
20844;SDS011;10583;49.084;8.646;2023-09-19T07:10:49;1.40;;;1.40;;
20844;SDS011;10583;49.084;8.646;2023-09-19T07:13:17;1.47;;;1.47;;
20844;SDS011;10583;49.084;8.646;2023-09-19T07:15:44;1.30;;;1.30;;
20844;SDS011;10583;49.084;8.646;2023-09-19T07:18:12;1.60;;;1.60;;
20844;SDS011;10583;49.084;8.646;2023-09-19T07:20:41;1.60;;;1.60;;
20844;SDS011;10583;49.084;8.646;2023-09-19T07:23:10;1.50;;;1.50;;
20844;SDS011;10583;49.084;8.646;2023-09-19T07:25:39;1.47;;;1.47;;
20844;SDS011;10583;49.084;8.646;2023-09-19T07:28:07;1.20;;;1.20;;
20844;SDS011;10583;49.084;8.646;2023-09-19T07:30:35;1.30;;;1.30;;
20844;SDS011;10583;49.084;8.646;2023-09-19T07:33:04;1.67;;;1.67;;
20844;SDS011;10583;49.084;8.646;2023-09-19T07:35:31;1.63;;;1.63;;
20844;SDS011;10583;49.084;8.646;2023-09-19T07:37:58;1.37;;;1.37;;
20844;SDS011;10583;49.084;8.646;2023-09-19T07:40:26;1.47;;;1.47;;
20844;SDS011;10583;49.084;8.646;2023-09-19T07:42:54;1.50;;;1.50;;
20844;SDS011;10583;49.084;8.646;2023-09-19T07:45:22;1.20;;;1.20;;
20844;SDS011;10583;49.084;8.646;2023-09-19T07:47:50;1.43;;;1.43;;
20844;SDS011;10583;49.084;8.646;2023-09-19T07:50:18;1.50;;;1.50;;
20844;SDS011;10583;49.084;8.646;2023-09-19T07:52:45;1.30;;;1.30;;
20844;SDS011;10583;49.084;8.646;2023-09-19T07:55:12;1.50;;;1.50;;
20844;SDS011;10583;49.084;8.646;2023-09-19T07:57:41;1.10;;;1.10;;
20844;SDS011;10583;49.084;8.646;2023-09-19T08:00:09;1.30;;;1.30;;
20844;SDS011;10583;49.084;8.646;2023-09-19T08:02:38;1.27;;;1.27;;
20844;SDS011;10583;49.084;8.646;2023-09-19T08:05:05;0.80;;;0.80;;
20844;SDS011;10583;49.084;8.646;2023-09-19T08:07:34;1.00;;;1.00;;
20844;SDS011;10583;49.084;8.646;2023-09-19T08:10:01;1.10;;;1.10;;
20844;SDS011;10583;49.084;8.646;2023-09-19T08:12:28;1.30;;;1.30;;
20844;SDS011;10583;49.084;8.646;2023-09-19T08:14:55;1.47;;;1.47;;
20844;SDS011;10583;49.084;8.646;2023-09-19T08:17:22;1.47;;;1.47;;
20844;SDS011;10583;49.084;8.646;2023-09-19T08:19:50;1.13;;;1.13;;
20844;SDS011;10583;49.084;8.646;2023-09-19T08:22:17;1.20;;;1.20;;
20844;SDS011;10583;49.084;8.646;2023-09-19T08:24:44;1.30;;;1.30;;
20844;SDS011;10583;49.084;8.646;2023-09-19T08:27:11;1.13;;;1.13;;
20844;SDS011;10583;49.084;8.646;2023-09-19T08:29:38;1.40;;;1.40;;
20844;SDS011;10583;49.084;8.646;2023-09-19T08:32:04;1.37;;;1.37;;
20844;SDS011;10583;49.084;8.646;2023-09-19T08:34:31;1.20;;;1.20;;
20844;SDS011;10583;49.084;8.646;2023-09-19T08:37:04;1.30;;;1.30;;
20844;SDS011;10583;49.084;8.646;2023-09-19T08:39:32;1.43;;;1.43;;
20844;SDS011;10583;49.084;8.646;2023-09-19T08:42:00;1.20;;;1.20;;
20844;SDS011;10583;49.084;8.646;2023-09-19T08:44:27;1.20;;;1.20;;
20844;SDS011;10583;49.084;8.646;2023-09-19T08:46:55;0.70;;;0.70;;
20844;SDS011;10583;49.084;8.646;2023-09-19T08:49:33;1.47;;;1.47;;
20844;SDS011;10583;49.084;8.646;2023-09-19T08:52:20;1.17;;;1.17;;
20844;SDS011;10583;49.084;8.646;2023-09-19T08:54:51;1.10;;;1.10;;
20844;SDS011;10583;49.084;8.646;2023-09-19T08:57:19;0.97;;;0.97;;
20844;SDS011;10583;49.084;8.646;2023-09-19T08:59:47;1.20;;;1.20;;
20844;SDS011;10583;49.084;8.646;2023-09-19T09:02:15;1.03;;;1.03;;
20844;SDS011;10583;49.084;8.646;2023-09-19T09:04:44;1.20;;;1.20;;
20844;SDS011;10583;49.084;8.646;2023-09-19T09:07:13;1.00;;;1.00;;
20844;SDS011;10583;49.084;8.646;2023-09-19T09:09:41;0.70;;;0.70;;
20844;SDS011;10583;49.084;8.646;2023-09-19T09:12:10;1.00;;;1.00;;
20844;SDS011;10583;49.084;8.646;2023-09-19T09:14:39;1.00;;;1.00;;
20844;SDS011;10583;49.084;8.646;2023-09-19T09:17:06;1.20;;;1.20;;
20844;SDS011;10583;49.084;8.646;2023-09-19T09:19:33;0.80;;;0.80;;
20844;SDS011;10583;49.084;8.646;2023-09-19T09:22:06;0.80;;;0.80;;
20844;SDS011;10583;49.084;8.646;2023-09-19T09:24:35;0.90;;;0.90;;
20844;SDS011;10583;49.084;8.646;2023-09-19T09:27:04;1.00;;;1.00;;
20844;SDS011;10583;49.084;8.646;2023-09-19T09:29:42;0.93;;;0.93;;
20844;SDS011;10583;49.084;8.646;2023-09-19T09:32:19;0.93;;;0.93;;
20844;SDS011;10583;49.084;8.646;2023-09-19T09:34:47;1.05;;;1.05;;
20844;SDS011;10583;49.084;8.646;2023-09-19T09:37:17;1.00;;;1.00;;
20844;SDS011;10583;49.084;8.646;2023-09-19T09:39:50;0.95;;;0.95;;
20844;SDS011;10583;49.084;8.646;2023-09-19T09:42:28;1.00;;;1.00;;
20844;SDS011;10583;49.084;8.646;2023-09-19T09:45:13;0.87;;;0.87;;
20844;SDS011;10583;49.084;8.646;2023-09-19T09:47:41;0.77;;;0.77;;
20844;SDS011;10583;49.084;8.646;2023-09-19T09:50:22;1.10;;;1.10;;
20844;SDS011;10583;49.084;8.646;2023-09-19T09:52:54;1.20;;;1.20;;
20844;SDS011;10583;49.084;8.646;2023-09-19T09:55:27;0.93;;;0.93;;
20844;SDS011;10583;49.084;8.646;2023-09-19T09:58:02;1.00;;;1.00;;
20844;SDS011;10583;49.084;8.646;2023-09-19T10:00:52;0.83;;;0.83;;
20844;SDS011;10583;49.084;8.646;2023-09-19T10:03:23;1.00;;;1.00;;
20844;SDS011;10583;49.084;8.646;2023-09-19T10:05:59;0.63;;;0.63;;
20844;SDS011;10583;49.084;8.646;2023-09-19T10:08:36;1.07;;;1.07;;
20844;SDS011;10583;49.084;8.646;2023-09-19T10:11:16;1.00;;;1.00;;
20844;SDS011;10583;49.084;8.646;2023-09-19T10:13:44;1.02;;;1.02;;
20844;SDS011;10583;49.084;8.646;2023-09-19T10:16:12;0.70;;;0.70;;
20844;SDS011;10583;49.084;8.646;2023-09-19T10:18:40;1.25;;;1.25;;
20844;SDS011;10583;49.084;8.646;2023-09-19T10:21:09;1.00;;;1.00;;
20844;SDS011;10583;49.084;8.646;2023-09-19T10:23:37;0.85;;;0.85;;
20844;SDS011;10583;49.084;8.646;2023-09-19T10:26:08;1.20;;;1.20;;
20844;SDS011;10583;49.084;8.646;2023-09-19T10:28:36;0.68;;;0.68;;
20844;SDS011;10583;49.084;8.646;2023-09-19T10:31:04;1.05;;;1.05;;
20844;SDS011;10583;49.084;8.646;2023-09-19T10:33:35;0.88;;;0.88;;
20844;SDS011;10583;49.084;8.646;2023-09-19T10:36:03;1.10;;;1.10;;
20844;SDS011;10583;49.084;8.646;2023-09-19T10:38:31;1.00;;;1.00;;
20844;SDS011;10583;49.084;8.646;2023-09-19T10:41:01;1.08;;;1.08;;
20844;SDS011;10583;49.084;8.646;2023-09-19T10:43:29;0.77;;;0.77;;
20844;SDS011;10583;49.084;8.646;2023-09-19T10:46:00;0.80;;;0.80;;
20844;SDS011;10583;49.084;8.646;2023-09-19T10:48:29;0.80;;;0.80;;
20844;SDS011;10583;49.084;8.646;2023-09-19T10:50:57;1.00;;;1.00;;
20844;SDS011;10583;49.084;8.646;2023-09-19T10:53:32;1.25;;;1.25;;
20844;SDS011;10583;49.084;8.646;2023-09-19T10:56:09;0.93;;;0.93;;
20844;SDS011;10583;49.084;8.646;2023-09-19T10:58:42;1.30;;;1.30;;
20844;SDS011;10583;49.084;8.646;2023-09-19T11:01:11;1.00;;;1.00;;
20844;SDS011;10583;49.084;8.646;2023-09-19T11:03:39;1.15;;;1.15;;
20844;SDS011;10583;49.084;8.646;2023-09-19T11:06:09;0.80;;;0.80;;
20844;SDS011;10583;49.084;8.646;2023-09-19T11:08:59;1.02;;;1.02;;
20844;SDS011;10583;49.084;8.646;2023-09-19T11:11:47;1.13;;;1.13;;
20844;SDS011;10583;49.084;8.646;2023-09-19T11:14:30;0.80;;;0.80;;
20844;SDS011;10583;49.084;8.646;2023-09-19T11:20:20;1.00;;;1.00;;
20844;SDS011;10583;49.084;8.646;2023-09-19T11:23:21;0.90;;;0.90;;
20844;SDS011;10583;49.084;8.646;2023-09-19T11:25:51;0.93;;;0.93;;
20844;SDS011;10583;49.084;8.646;2023-09-19T11:28:32;0.95;;;0.95;;
20844;SDS011;10583;49.084;8.646;2023-09-19T11:40:11;1.02;;;1.02;;
20844;SDS011;10583;49.084;8.646;2023-09-19T11:42:42;0.70;;;0.70;;
20844;SDS011;10583;49.084;8.646;2023-09-19T11:48:22;1.10;;;1.10;;
20844;SDS011;10583;49.084;8.646;2023-09-19T11:50:50;1.23;;;1.23;;
20844;SDS011;10583;49.084;8.646;2023-09-19T11:53:18;1.10;;;1.10;;
20844;SDS011;10583;49.084;8.646;2023-09-19T11:55:47;1.23;;;1.23;;
20844;SDS011;10583;49.084;8.646;2023-09-19T11:58:14;1.02;;;1.02;;
20844;SDS011;10583;49.084;8.646;2023-09-19T12:00:42;1.20;;;1.20;;
20844;SDS011;10583;49.084;8.646;2023-09-19T12:03:11;1.20;;;1.20;;
20844;SDS011;10583;49.084;8.646;2023-09-19T12:05:39;1.02;;;1.02;;
20844;SDS011;10583;49.084;8.646;2023-09-19T12:08:06;1.23;;;1.23;;
20844;SDS011;10583;49.084;8.646;2023-09-19T12:10:34;1.10;;;1.10;;
20844;SDS011;10583;49.084;8.646;2023-09-19T12:13:16;1.13;;;1.13;;
20844;SDS011;10583;49.084;8.646;2023-09-19T12:15:43;1.33;;;1.33;;
20844;SDS011;10583;49.084;8.646;2023-09-19T12:18:25;0.80;;;0.80;;
20844;SDS011;10583;49.084;8.646;2023-09-19T12:20:52;1.08;;;1.08;;
20844;SDS011;10583;49.084;8.646;2023-09-19T12:23:19;1.10;;;1.10;;
20844;SDS011;10583;49.084;8.646;2023-09-19T12:25:47;1.40;;;1.40;;
20844;SDS011;10583;49.084;8.646;2023-09-19T12:28:17;1.02;;;1.02;;
20844;SDS011;10583;49.084;8.646;2023-09-19T12:30:47;1.25;;;1.25;;
20844;SDS011;10583;49.084;8.646;2023-09-19T12:33:17;1.30;;;1.30;;
20844;SDS011;10583;49.084;8.646;2023-09-19T12:35:46;1.05;;;1.05;;
20844;SDS011;10583;49.084;8.646;2023-09-19T12:38:22;0.95;;;0.95;;
20844;SDS011;10583;49.084;8.646;2023-09-19T12:40:51;1.08;;;1.08;;
20844;SDS011;10583;49.084;8.646;2023-09-19T12:43:18;0.90;;;0.90;;
20844;SDS011;10583;49.084;8.646;2023-09-19T12:45:45;0.80;;;0.80;;
20844;SDS011;10583;49.084;8.646;2023-09-19T12:48:19;0.80;;;0.80;;
20844;SDS011;10583;49.084;8.646;2023-09-19T12:51:00;1.10;;;1.10;;
20844;SDS011;10583;49.084;8.646;2023-09-19T12:53:31;1.10;;;1.10;;
20844;SDS011;10583;49.084;8.646;2023-09-19T12:56:02;1.30;;;1.30;;
20844;SDS011;10583;49.084;8.646;2023-09-19T12:58:31;1.40;;;1.40;;
20844;SDS011;10583;49.084;8.646;2023-09-19T13:00:59;1.10;;;1.10;;
20844;SDS011;10583;49.084;8.646;2023-09-19T13:03:27;1.48;;;1.48;;
20844;SDS011;10583;49.084;8.646;2023-09-19T13:05:57;0.90;;;0.90;;
20844;SDS011;10583;49.084;8.646;2023-09-19T13:08:27;0.90;;;0.90;;
20844;SDS011;10583;49.084;8.646;2023-09-19T13:11:08;0.95;;;0.95;;
20844;SDS011;10583;49.084;8.646;2023-09-19T13:13:38;0.90;;;0.90;;
20844;SDS011;10583;49.084;8.646;2023-09-19T13:16:06;1.17;;;1.17;;
20844;SDS011;10583;49.084;8.646;2023-09-19T13:18:41;0.75;;;0.75;;
20844;SDS011;10583;49.084;8.646;2023-09-19T13:21:10;0.85;;;0.85;;
20844;SDS011;10583;49.084;8.646;2023-09-19T13:23:40;1.10;;;1.10;;
20844;SDS011;10583;49.084;8.646;2023-09-19T13:26:09;1.00;;;1.00;;
20844;SDS011;10583;49.084;8.646;2023-09-19T13:28:37;1.00;;;1.00;;
20844;SDS011;10583;49.084;8.646;2023-09-19T13:31:04;1.30;;;1.30;;
20844;SDS011;10583;49.084;8.646;2023-09-19T13:33:30;1.10;;;1.10;;
20844;SDS011;10583;49.084;8.646;2023-09-19T13:35:58;0.75;;;0.75;;
20844;SDS011;10583;49.084;8.646;2023-09-19T13:38:25;1.08;;;1.08;;
20844;SDS011;10583;49.084;8.646;2023-09-19T13:40:52;1.20;;;1.20;;
20844;SDS011;10583;49.084;8.646;2023-09-19T13:43:20;1.05;;;1.05;;
20844;SDS011;10583;49.084;8.646;2023-09-19T13:45:47;1.20;;;1.20;;
20844;SDS011;10583;49.084;8.646;2023-09-19T13:48:15;1.05;;;1.05;;
20844;SDS011;10583;49.084;8.646;2023-09-19T13:50:47;1.02;;;1.02;;
20844;SDS011;10583;49.084;8.646;2023-09-19T13:53:14;1.13;;;1.13;;
20844;SDS011;10583;49.084;8.646;2023-09-19T13:55:41;1.20;;;1.20;;
20844;SDS011;10583;49.084;8.646;2023-09-19T13:58:08;1.30;;;1.30;;
20844;SDS011;10583;49.084;8.646;2023-09-19T14:00:37;1.40;;;1.40;;
20844;SDS011;10583;49.084;8.646;2023-09-19T14:03:04;1.20;;;1.20;;
20844;SDS011;10583;49.084;8.646;2023-09-19T14:05:31;0.95;;;0.95;;
20844;SDS011;10583;49.084;8.646;2023-09-19T14:07:58;1.00;;;1.00;;
20844;SDS011;10583;49.084;8.646;2023-09-19T14:10:25;0.85;;;0.85;;
20844;SDS011;10583;49.084;8.646;2023-09-19T14:12:52;0.85;;;0.85;;
20844;SDS011;10583;49.084;8.646;2023-09-19T14:15:19;1.27;;;1.27;;
20844;SDS011;10583;49.084;8.646;2023-09-19T14:17:55;1.10;;;1.10;;
20844;SDS011;10583;49.084;8.646;2023-09-19T14:20:24;0.88;;;0.88;;
20844;SDS011;10583;49.084;8.646;2023-09-19T14:22:51;1.20;;;1.20;;
20844;SDS011;10583;49.084;8.646;2023-09-19T14:25:18;0.90;;;0.90;;
20844;SDS011;10583;49.084;8.646;2023-09-19T14:27:46;1.30;;;1.30;;
20844;SDS011;10583;49.084;8.646;2023-09-19T14:30:13;0.93;;;0.93;;
20844;SDS011;10583;49.084;8.646;2023-09-19T14:32:40;1.10;;;1.10;;
20844;SDS011;10583;49.084;8.646;2023-09-19T14:35:08;1.00;;;1.00;;
20844;SDS011;10583;49.084;8.646;2023-09-19T14:37:35;0.90;;;0.90;;
20844;SDS011;10583;49.084;8.646;2023-09-19T14:40:03;1.00;;;1.00;;
20844;SDS011;10583;49.084;8.646;2023-09-19T14:42:33;0.80;;;0.80;;
20844;SDS011;10583;49.084;8.646;2023-09-19T14:45:01;0.77;;;0.77;;
20844;SDS011;10583;49.084;8.646;2023-09-19T14:47:28;0.85;;;0.85;;
20844;SDS011;10583;49.084;8.646;2023-09-19T14:49:57;0.80;;;0.80;;
20844;SDS011;10583;49.084;8.646;2023-09-19T14:52:25;1.08;;;1.08;;
20844;SDS011;10583;49.084;8.646;2023-09-19T14:54:53;1.00;;;1.00;;
20844;SDS011;10583;49.084;8.646;2023-09-19T14:57:20;0.90;;;0.90;;
20844;SDS011;10583;49.084;8.646;2023-09-19T14:59:49;0.80;;;0.80;;
20844;SDS011;10583;49.084;8.646;2023-09-19T15:02:16;1.02;;;1.02;;
20844;SDS011;10583;49.084;8.646;2023-09-19T15:04:42;0.60;;;0.60;;
20844;SDS011;10583;49.084;8.646;2023-09-19T15:07:12;0.73;;;0.73;;
20844;SDS011;10583;49.084;8.646;2023-09-19T15:09:41;0.80;;;0.80;;
20844;SDS011;10583;49.084;8.646;2023-09-19T15:12:08;0.75;;;0.75;;
20844;SDS011;10583;49.084;8.646;2023-09-19T15:14:39;1.10;;;1.10;;
20844;SDS011;10583;49.084;8.646;2023-09-19T15:17:05;1.90;;;1.90;;
20844;SDS011;10583;49.084;8.646;2023-09-19T15:19:32;0.80;;;0.80;;